sensor_id;sensor_type;location;lat;lon;timestamp;P1;durP1;ratioP1;P2;durP2;ratioP2
55254;SDS011;41118;44.634;11.182;2022-09-01T00:01:21;2.58;;;0.50;;
55254;SDS011;41118;44.634;11.182;2022-09-01T00:03:50;2.33;;;0.70;;
55254;SDS011;41118;44.634;11.182;2022-09-01T00:06:20;2.88;;;0.88;;
55254;SDS011;41118;44.634;11.182;2022-09-01T00:08:51;6.05;;;0.98;;
55254;SDS011;41118;44.634;11.182;2022-09-01T00:11:19;6.68;;;1.33;;
55254;SDS011;41118;44.634;11.182;2022-09-01T00:13:45;2.78;;;0.50;;
55254;SDS011;41118;44.634;11.182;2022-09-01T00:16:12;4.03;;;0.52;;
55254;SDS011;41118;44.634;11.182;2022-09-01T00:18:40;2.03;;;0.80;;
55254;SDS011;41118;44.634;11.182;2022-09-01T00:21:07;2.15;;;0.52;;
55254;SDS011;41118;44.634;11.182;2022-09-01T00:23:34;2.85;;;0.70;;
55254;SDS011;41118;44.634;11.182;2022-09-01T00:26:00;3.95;;;1.13;;
55254;SDS011;41118;44.634;11.182;2022-09-01T00:28:26;3.85;;;0.95;;
55254;SDS011;41118;44.634;11.182;2022-09-01T00:30:53;2.72;;;0.80;;
55254;SDS011;41118;44.634;11.182;2022-09-01T00:33:19;2.72;;;0.70;;
55254;SDS011;41118;44.634;11.182;2022-09-01T00:35:46;3.15;;;1.35;;
55254;SDS011;41118;44.634;11.182;2022-09-01T00:38:12;3.80;;;1.05;;
55254;SDS011;41118;44.634;11.182;2022-09-01T00:40:38;5.05;;;1.50;;
55254;SDS011;41118;44.634;11.182;2022-09-01T00:43:14;6.22;;;1.48;;
55254;SDS011;41118;44.634;11.182;2022-09-01T00:45:41;4.63;;;1.05;;
55254;SDS011;41118;44.634;11.182;2022-09-01T00:48:08;4.55;;;1.13;;
55254;SDS011;41118;44.634;11.182;2022-09-01T00:50:34;2.55;;;0.60;;
55254;SDS011;41118;44.634;11.182;2022-09-01T00:53:01;3.58;;;1.33;;
55254;SDS011;41118;44.634;11.182;2022-09-01T00:55:30;2.53;;;0.90;;
55254;SDS011;41118;44.634;11.182;2022-09-01T00:57:57;1.80;;;0.80;;
55254;SDS011;41118;44.634;11.182;2022-09-01T01:00:26;2.83;;;0.75;;
55254;SDS011;41118;44.634;11.182;2022-09-01T01:02:52;6.45;;;1.92;;
55254;SDS011;41118;44.634;11.182;2022-09-01T01:05:20;2.13;;;0.88;;
55254;SDS011;41118;44.634;11.182;2022-09-01T01:07:47;3.85;;;1.17;;
55254;SDS011;41118;44.634;11.182;2022-09-01T01:10:17;2.50;;;0.82;;
55254;SDS011;41118;44.634;11.182;2022-09-01T01:12:43;2.22;;;0.50;;
55254;SDS011;41118;44.634;11.182;2022-09-01T01:15:11;2.65;;;0.60;;
55254;SDS011;41118;44.634;11.182;2022-09-01T01:17:38;3.03;;;0.60;;
55254;SDS011;41118;44.634;11.182;2022-09-01T01:20:05;4.70;;;0.85;;
55254;SDS011;41118;44.634;11.182;2022-09-01T01:22:58;3.17;;;0.93;;
55254;SDS011;41118;44.634;11.182;2022-09-01T01:25:35;3.78;;;0.80;;
55254;SDS011;41118;44.634;11.182;2022-09-01T01:28:05;6.88;;;2.05;;
55254;SDS011;41118;44.634;11.182;2022-09-01T01:30:31;3.33;;;1.00;;
55254;SDS011;41118;44.634;11.182;2022-09-01T01:32:59;3.55;;;0.82;;
55254;SDS011;41118;44.634;11.182;2022-09-01T01:35:25;3.65;;;0.80;;
55254;SDS011;41118;44.634;11.182;2022-09-01T01:37:52;2.60;;;0.88;;
55254;SDS011;41118;44.634;11.182;2022-09-01T01:40:19;4.55;;;0.90;;
55254;SDS011;41118;44.634;11.182;2022-09-01T01:42:48;4.28;;;1.13;;
55254;SDS011;41118;44.634;11.182;2022-09-01T01:45:15;2.22;;;0.70;;
55254;SDS011;41118;44.634;11.182;2022-09-01T01:47:45;2.67;;;0.90;;
55254;SDS011;41118;44.634;11.182;2022-09-01T01:50:18;2.63;;;0.80;;
55254;SDS011;41118;44.634;11.182;2022-09-01T01:52:44;2.95;;;0.73;;
55254;SDS011;41118;44.634;11.182;2022-09-01T01:55:11;2.70;;;1.05;;
55254;SDS011;41118;44.634;11.182;2022-09-01T01:57:38;3.53;;;1.50;;
55254;SDS011;41118;44.634;11.182;2022-09-01T02:00:09;3.78;;;0.95;;
55254;SDS011;41118;44.634;11.182;2022-09-01T02:02:36;2.50;;;0.82;;
55254;SDS011;41118;44.634;11.182;2022-09-01T02:05:03;8.32;;;0.68;;
55254;SDS011;41118;44.634;11.182;2022-09-01T02:07:30;5.32;;;0.77;;
55254;SDS011;41118;44.634;11.182;2022-09-01T02:09:57;2.97;;;0.60;;
55254;SDS011;41118;44.634;11.182;2022-09-01T02:12:23;4.75;;;1.20;;
55254;SDS011;41118;44.634;11.182;2022-09-01T02:14:49;4.75;;;0.68;;
55254;SDS011;41118;44.634;11.182;2022-09-01T02:17:18;4.28;;;0.65;;
55254;SDS011;41118;44.634;11.182;2022-09-01T02:19:45;3.42;;;0.70;;
55254;SDS011;41118;44.634;11.182;2022-09-01T02:22:11;6.40;;;1.20;;
55254;SDS011;41118;44.634;11.182;2022-09-01T02:24:37;2.67;;;0.88;;
55254;SDS011;41118;44.634;11.182;2022-09-01T02:27:10;4.90;;;0.80;;
55254;SDS011;41118;44.634;11.182;2022-09-01T02:29:36;5.60;;;0.90;;
55254;SDS011;41118;44.634;11.182;2022-09-01T02:32:03;3.20;;;1.08;;
55254;SDS011;41118;44.634;11.182;2022-09-01T02:34:29;2.35;;;0.95;;
55254;SDS011;41118;44.634;11.182;2022-09-01T02:36:56;7.13;;;1.52;;
55254;SDS011;41118;44.634;11.182;2022-09-01T02:39:24;5.47;;;1.10;;
55254;SDS011;41118;44.634;11.182;2022-09-01T02:41:51;3.72;;;0.90;;
55254;SDS011;41118;44.634;11.182;2022-09-01T02:44:17;3.08;;;1.45;;
55254;SDS011;41118;44.634;11.182;2022-09-01T02:46:47;3.55;;;1.08;;
55254;SDS011;41118;44.634;11.182;2022-09-01T02:49:15;5.57;;;0.80;;
55254;SDS011;41118;44.634;11.182;2022-09-01T02:51:44;8.57;;;0.80;;
55254;SDS011;41118;44.634;11.182;2022-09-01T02:54:11;7.20;;;1.50;;
55254;SDS011;41118;44.634;11.182;2022-09-01T02:56:41;9.52;;;1.52;;
55254;SDS011;41118;44.634;11.182;2022-09-01T02:59:08;3.97;;;1.15;;
55254;SDS011;41118;44.634;11.182;2022-09-01T03:01:37;4.10;;;1.27;;
55254;SDS011;41118;44.634;11.182;2022-09-01T03:04:04;5.05;;;1.85;;
55254;SDS011;41118;44.634;11.182;2022-09-01T03:06:34;11.43;;;1.00;;
55254;SDS011;41118;44.634;11.182;2022-09-01T03:09:00;4.75;;;1.38;;
55254;SDS011;41118;44.634;11.182;2022-09-01T03:11:28;6.22;;;1.00;;
55254;SDS011;41118;44.634;11.182;2022-09-01T03:13:54;5.43;;;1.83;;
55254;SDS011;41118;44.634;11.182;2022-09-01T03:16:21;6.90;;;1.30;;
55254;SDS011;41118;44.634;11.182;2022-09-01T03:18:47;6.32;;;1.35;;
55254;SDS011;41118;44.634;11.182;2022-09-01T03:21:14;2.88;;;0.85;;
55254;SDS011;41118;44.634;11.182;2022-09-01T03:23:42;4.70;;;1.63;;
55254;SDS011;41118;44.634;11.182;2022-09-01T03:26:08;9.52;;;2.00;;
55254;SDS011;41118;44.634;11.182;2022-09-01T03:28:34;5.28;;;2.00;;
55254;SDS011;41118;44.634;11.182;2022-09-01T03:31:02;7.00;;;1.98;;
55254;SDS011;41118;44.634;11.182;2022-09-01T03:33:28;5.03;;;2.08;;
55254;SDS011;41118;44.634;11.182;2022-09-01T03:35:55;6.20;;;1.92;;
55254;SDS011;41118;44.634;11.182;2022-09-01T03:38:21;5.18;;;2.42;;
55254;SDS011;41118;44.634;11.182;2022-09-01T03:40:58;5.40;;;2.03;;
55254;SDS011;41118;44.634;11.182;2022-09-01T03:43:26;7.03;;;3.08;;
55254;SDS011;41118;44.634;11.182;2022-09-01T03:45:56;7.45;;;2.10;;
55254;SDS011;41118;44.634;11.182;2022-09-01T03:48:26;7.28;;;2.50;;
55254;SDS011;41118;44.634;11.182;2022-09-01T03:50:52;8.32;;;2.10;;
55254;SDS011;41118;44.634;11.182;2022-09-01T03:53:19;4.35;;;1.58;;
55254;SDS011;41118;44.634;11.182;2022-09-01T03:55:47;6.85;;;2.42;;
55254;SDS011;41118;44.634;11.182;2022-09-01T03:58:17;3.63;;;0.80;;
55254;SDS011;41118;44.634;11.182;2022-09-01T04:00:47;4.78;;;1.67;;
55254;SDS011;41118;44.634;11.182;2022-09-01T04:03:13;10.82;;;3.17;;
55254;SDS011;41118;44.634;11.182;2022-09-01T04:05:42;9.25;;;3.20;;
55254;SDS011;41118;44.634;11.182;2022-09-01T04:08:09;5.75;;;2.42;;
55254;SDS011;41118;44.634;11.182;2022-09-01T04:10:41;7.30;;;2.60;;
55254;SDS011;41118;44.634;11.182;2022-09-01T04:13:13;7.13;;;2.42;;
55254;SDS011;41118;44.634;11.182;2022-09-01T04:15:39;6.22;;;2.75;;
55254;SDS011;41118;44.634;11.182;2022-09-01T04:18:05;4.97;;;2.30;;
55254;SDS011;41118;44.634;11.182;2022-09-01T04:20:43;8.15;;;3.00;;
55254;SDS011;41118;44.634;11.182;2022-09-01T04:23:14;5.97;;;3.35;;
55254;SDS011;41118;44.634;11.182;2022-09-01T04:25:50;8.63;;;2.55;;
55254;SDS011;41118;44.634;11.182;2022-09-01T04:28:18;12.05;;;3.97;;
55254;SDS011;41118;44.634;11.182;2022-09-01T04:30:52;7.93;;;2.55;;
55254;SDS011;41118;44.634;11.182;2022-09-01T04:33:25;8.50;;;2.95;;
55254;SDS011;41118;44.634;11.182;2022-09-01T04:35:58;8.18;;;3.28;;
55254;SDS011;41118;44.634;11.182;2022-09-01T04:38:24;7.82;;;3.38;;
55254;SDS011;41118;44.634;11.182;2022-09-01T04:40:53;10.23;;;3.42;;
55254;SDS011;41118;44.634;11.182;2022-09-01T04:43:21;5.55;;;2.83;;
55254;SDS011;41118;44.634;11.182;2022-09-01T04:45:47;10.05;;;2.58;;
55254;SDS011;41118;44.634;11.182;2022-09-01T04:48:15;8.38;;;4.32;;
55254;SDS011;41118;44.634;11.182;2022-09-01T04:50:43;6.72;;;3.42;;
55254;SDS011;41118;44.634;11.182;2022-09-01T04:53:10;8.75;;;2.83;;
55254;SDS011;41118;44.634;11.182;2022-09-01T04:55:39;5.43;;;2.38;;
55254;SDS011;41118;44.634;11.182;2022-09-01T04:58:09;6.95;;;2.38;;
55254;SDS011;41118;44.634;11.182;2022-09-01T05:00:38;5.63;;;2.67;;
55254;SDS011;41118;44.634;11.182;2022-09-01T05:03:04;9.07;;;3.83;;
55254;SDS011;41118;44.634;11.182;2022-09-01T05:05:35;7.40;;;3.05;;
55254;SDS011;41118;44.634;11.182;2022-09-01T05:08:06;8.90;;;3.92;;
55254;SDS011;41118;44.634;11.182;2022-09-01T05:10:37;6.47;;;2.72;;
55254;SDS011;41118;44.634;11.182;2022-09-01T05:13:04;12.95;;;4.22;;
55254;SDS011;41118;44.634;11.182;2022-09-01T05:15:36;8.57;;;4.65;;
55254;SDS011;41118;44.634;11.182;2022-09-01T05:18:02;14.25;;;4.10;;
55254;SDS011;41118;44.634;11.182;2022-09-01T05:20:35;4.72;;;1.98;;
55254;SDS011;41118;44.634;11.182;2022-09-01T05:23:02;8.52;;;3.42;;
55254;SDS011;41118;44.634;11.182;2022-09-01T05:25:29;10.05;;;4.10;;
55254;SDS011;41118;44.634;11.182;2022-09-01T05:27:55;6.25;;;2.53;;
55254;SDS011;41118;44.634;11.182;2022-09-01T05:30:21;6.60;;;2.50;;
55254;SDS011;41118;44.634;11.182;2022-09-01T05:32:52;6.40;;;2.28;;
55254;SDS011;41118;44.634;11.182;2022-09-01T05:35:19;8.48;;;2.88;;
55254;SDS011;41118;44.634;11.182;2022-09-01T05:37:48;6.57;;;1.92;;
55254;SDS011;41118;44.634;11.182;2022-09-01T05:40:15;5.80;;;2.17;;
55254;SDS011;41118;44.634;11.182;2022-09-01T05:42:44;4.93;;;1.65;;
55254;SDS011;41118;44.634;11.182;2022-09-01T05:45:11;3.90;;;1.80;;
55254;SDS011;41118;44.634;11.182;2022-09-01T05:47:38;7.65;;;1.58;;
55254;SDS011;41118;44.634;11.182;2022-09-01T05:50:06;4.88;;;1.83;;
55254;SDS011;41118;44.634;11.182;2022-09-01T05:52:35;7.13;;;2.13;;
55254;SDS011;41118;44.634;11.182;2022-09-01T05:55:01;7.82;;;2.38;;
55254;SDS011;41118;44.634;11.182;2022-09-01T05:57:28;6.88;;;1.48;;
55254;SDS011;41118;44.634;11.182;2022-09-01T05:59:58;6.55;;;1.83;;
55254;SDS011;41118;44.634;11.182;2022-09-01T06:02:25;6.80;;;2.10;;
55254;SDS011;41118;44.634;11.182;2022-09-01T06:04:51;5.18;;;2.42;;
55254;SDS011;41118;44.634;11.182;2022-09-01T06:07:21;6.70;;;1.90;;
55254;SDS011;41118;44.634;11.182;2022-09-01T06:09:47;6.07;;;1.05;;
55254;SDS011;41118;44.634;11.182;2022-09-01T06:12:15;3.38;;;0.93;;
55254;SDS011;41118;44.634;11.182;2022-09-01T06:14:42;3.65;;;2.60;;
55254;SDS011;41118;44.634;11.182;2022-09-01T06:17:08;5.50;;;1.88;;
55254;SDS011;41118;44.634;11.182;2022-09-01T06:19:35;9.13;;;3.05;;
55254;SDS011;41118;44.634;11.182;2022-09-01T06:22:02;9.02;;;1.27;;
55254;SDS011;41118;44.634;11.182;2022-09-01T06:24:28;4.95;;;1.67;;
55254;SDS011;41118;44.634;11.182;2022-09-01T06:26:55;6.22;;;2.25;;
55254;SDS011;41118;44.634;11.182;2022-09-01T06:29:21;3.90;;;1.77;;
55254;SDS011;41118;44.634;11.182;2022-09-01T06:31:47;7.93;;;2.63;;
55254;SDS011;41118;44.634;11.182;2022-09-01T06:34:16;11.73;;;2.45;;
55254;SDS011;41118;44.634;11.182;2022-09-01T06:36:44;4.65;;;1.30;;
55254;SDS011;41118;44.634;11.182;2022-09-01T06:39:11;4.63;;;1.23;;
55254;SDS011;41118;44.634;11.182;2022-09-01T06:41:47;5.68;;;1.20;;
55254;SDS011;41118;44.634;11.182;2022-09-01T06:44:13;4.72;;;1.33;;
55254;SDS011;41118;44.634;11.182;2022-09-01T06:46:39;4.05;;;1.20;;
55254;SDS011;41118;44.634;11.182;2022-09-01T06:49:05;4.20;;;1.17;;
55254;SDS011;41118;44.634;11.182;2022-09-01T06:51:35;5.47;;;0.85;;
55254;SDS011;41118;44.634;11.182;2022-09-01T06:54:02;2.83;;;0.73;;
55254;SDS011;41118;44.634;11.182;2022-09-01T06:56:29;3.63;;;0.85;;
55254;SDS011;41118;44.634;11.182;2022-09-01T06:58:55;6.22;;;0.60;;
55254;SDS011;41118;44.634;11.182;2022-09-01T07:01:22;3.88;;;0.70;;
55254;SDS011;41118;44.634;11.182;2022-09-01T07:03:51;3.75;;;0.50;;
55254;SDS011;41118;44.634;11.182;2022-09-01T07:06:19;3.70;;;0.68;;
55254;SDS011;41118;44.634;11.182;2022-09-01T07:08:48;1.70;;;0.47;;
55254;SDS011;41118;44.634;11.182;2022-09-01T07:11:18;4.30;;;0.47;;
55254;SDS011;41118;44.634;11.182;2022-09-01T07:13:53;17.58;;;1.10;;
55254;SDS011;41118;44.634;11.182;2022-09-01T07:16:20;1.60;;;0.43;;
55254;SDS011;41118;44.634;11.182;2022-09-01T07:18:47;3.85;;;0.70;;
55254;SDS011;41118;44.634;11.182;2022-09-01T07:21:14;2.15;;;0.50;;
55254;SDS011;41118;44.634;11.182;2022-09-01T07:23:40;3.83;;;0.60;;
55254;SDS011;41118;44.634;11.182;2022-09-01T07:26:08;3.53;;;0.60;;
55254;SDS011;41118;44.634;11.182;2022-09-01T07:28:34;2.22;;;0.75;;
55254;SDS011;41118;44.634;11.182;2022-09-01T07:31:00;1.65;;;0.60;;
55254;SDS011;41118;44.634;11.182;2022-09-01T07:33:28;1.30;;;0.50;;
55254;SDS011;41118;44.634;11.182;2022-09-01T07:35:55;0.77;;;0.20;;
55254;SDS011;41118;44.634;11.182;2022-09-01T07:38:23;1.65;;;0.40;;
55254;SDS011;41118;44.634;11.182;2022-09-01T07:40:50;1.50;;;0.30;;
55254;SDS011;41118;44.634;11.182;2022-09-01T07:43:20;1.65;;;0.30;;
55254;SDS011;41118;44.634;11.182;2022-09-01T07:45:49;2.70;;;0.30;;
55254;SDS011;41118;44.634;11.182;2022-09-01T07:48:16;2.67;;;0.30;;
55254;SDS011;41118;44.634;11.182;2022-09-01T07:50:45;2.05;;;0.20;;
55254;SDS011;41118;44.634;11.182;2022-09-01T07:53:15;8.18;;;0.20;;
55254;SDS011;41118;44.634;11.182;2022-09-01T07:55:46;1.20;;;0.30;;
55254;SDS011;41118;44.634;11.182;2022-09-01T07:58:14;0.90;;;0.28;;
55254;SDS011;41118;44.634;11.182;2022-09-01T08:00:41;8.43;;;1.17;;
55254;SDS011;41118;44.634;11.182;2022-09-01T08:03:14;1.30;;;0.30;;
55254;SDS011;41118;44.634;11.182;2022-09-01T08:05:41;1.92;;;0.30;;
55254;SDS011;41118;44.634;11.182;2022-09-01T08:08:07;4.45;;;0.30;;
55254;SDS011;41118;44.634;11.182;2022-09-01T08:10:37;3.78;;;0.30;;
55254;SDS011;41118;44.634;11.182;2022-09-01T08:13:04;1.10;;;0.32;;
55254;SDS011;41118;44.634;11.182;2022-09-01T08:15:30;5.68;;;0.20;;
55254;SDS011;41118;44.634;11.182;2022-09-01T08:17:56;1.52;;;0.30;;
55254;SDS011;41118;44.634;11.182;2022-09-01T08:20:22;0.82;;;0.30;;
55254;SDS011;41118;44.634;11.182;2022-09-01T08:22:48;1.13;;;0.20;;
55254;SDS011;41118;44.634;11.182;2022-09-01T08:25:14;2.85;;;0.40;;
55254;SDS011;41118;44.634;11.182;2022-09-01T08:27:40;1.48;;;0.30;;
55254;SDS011;41118;44.634;11.182;2022-09-01T08:30:08;3.00;;;0.20;;
55254;SDS011;41118;44.634;11.182;2022-09-01T08:32:34;0.90;;;0.20;;
55254;SDS011;41118;44.634;11.182;2022-09-01T08:35:01;0.65;;;0.20;;
55254;SDS011;41118;44.634;11.182;2022-09-01T08:37:28;1.50;;;0.22;;
55254;SDS011;41118;44.634;11.182;2022-09-01T08:39:54;1.85;;;0.30;;
55254;SDS011;41118;44.634;11.182;2022-09-01T08:45:28;1.00;;;0.10;;
55254;SDS011;41118;44.634;11.182;2022-09-01T08:47:46;0.93;;;0.20;;
55254;SDS011;41118;44.634;11.182;2022-09-01T08:50:13;2.03;;;0.20;;
55254;SDS011;41118;44.634;11.182;2022-09-01T08:53:23;0.90;;;0.40;;
55254;SDS011;41118;44.634;11.182;2022-09-01T08:55:34;2.65;;;0.30;;
55254;SDS011;41118;44.634;11.182;2022-09-01T08:58:02;0.77;;;0.20;;
55254;SDS011;41118;44.634;11.182;2022-09-01T09:00:32;2.35;;;0.20;;
55254;SDS011;41118;44.634;11.182;2022-09-01T09:10:33;8.70;;;0.20;;
55254;SDS011;41118;44.634;11.182;2022-09-01T09:15:42;2.45;;;0.10;;
55254;SDS011;41118;44.634;11.182;2022-09-01T09:18:17;4.70;;;0.20;;
55254;SDS011;41118;44.634;11.182;2022-09-01T09:20:44;0.65;;;0.10;;
55254;SDS011;41118;44.634;11.182;2022-09-01T09:23:15;2.72;;;0.10;;
55254;SDS011;41118;44.634;11.182;2022-09-01T09:25:46;0.98;;;0.20;;
55254;SDS011;41118;44.634;11.182;2022-09-01T09:28:12;1.58;;;0.10;;
55254;SDS011;41118;44.634;11.182;2022-09-01T09:30:38;1.67;;;0.20;;
55254;SDS011;41118;44.634;11.182;2022-09-01T09:33:06;0.82;;;0.20;;
55254;SDS011;41118;44.634;11.182;2022-09-01T09:35:41;0.68;;;0.10;;
55254;SDS011;41118;44.634;11.182;2022-09-01T09:41:06;2.70;;;0.10;;
55254;SDS011;41118;44.634;11.182;2022-09-01T09:43:34;0.60;;;0.10;;
55254;SDS011;41118;44.634;11.182;2022-09-01T09:48:46;0.70;;;0.20;;
55254;SDS011;41118;44.634;11.182;2022-09-01T09:51:18;0.22;;;0.00;;
55254;SDS011;41118;44.634;11.182;2022-09-01T09:53:45;1.20;;;0.10;;
55254;SDS011;41118;44.634;11.182;2022-09-01T09:58:40;8.80;;;0.25;;
55254;SDS011;41118;44.634;11.182;2022-09-01T10:01:11;0.40;;;0.10;;
55254;SDS011;41118;44.634;11.182;2022-09-01T10:03:44;0.98;;;0.10;;
55254;SDS011;41118;44.634;11.182;2022-09-01T10:06:15;1.85;;;0.10;;
55254;SDS011;41118;44.634;11.182;2022-09-01T10:08:54;2.28;;;0.10;;
55254;SDS011;41118;44.634;11.182;2022-09-01T10:11:24;0.43;;;0.10;;
55254;SDS011;41118;44.634;11.182;2022-09-01T10:13:52;0.40;;;0.10;;
55254;SDS011;41118;44.634;11.182;2022-09-01T10:16:23;0.30;;;0.10;;
55254;SDS011;41118;44.634;11.182;2022-09-01T10:18:51;2.47;;;0.10;;
55254;SDS011;41118;44.634;11.182;2022-09-01T10:21:20;5.40;;;0.20;;
55254;SDS011;41118;44.634;11.182;2022-09-01T10:23:48;0.30;;;0.10;;
55254;SDS011;41118;44.634;11.182;2022-09-01T10:26:16;0.98;;;0.10;;
55254;SDS011;41118;44.634;11.182;2022-09-01T10:28:51;5.70;;;0.30;;
55254;SDS011;41118;44.634;11.182;2022-09-01T10:31:18;1.40;;;0.10;;
55254;SDS011;41118;44.634;11.182;2022-09-01T10:33:45;0.40;;;0.05;;
55254;SDS011;41118;44.634;11.182;2022-09-01T10:36:11;0.70;;;0.10;;
55254;SDS011;41118;44.634;11.182;2022-09-01T10:38:40;0.90;;;0.10;;
55254;SDS011;41118;44.634;11.182;2022-09-01T10:41:07;0.88;;;0.10;;
55254;SDS011;41118;44.634;11.182;2022-09-01T10:48:48;4.38;;;0.08;;
55254;SDS011;41118;44.634;11.182;2022-09-01T11:02:02;1.45;;;0.10;;
55254;SDS011;41118;44.634;11.182;2022-09-01T11:05:09;0.80;;;0.10;;
55254;SDS011;41118;44.634;11.182;2022-09-01T11:20:22;2.45;;;0.10;;
55254;SDS011;41118;44.634;11.182;2022-09-01T11:35:44;1.10;;;0.10;;
55254;SDS011;41118;44.634;11.182;2022-09-01T11:38:13;4.45;;;0.10;;
55254;SDS011;41118;44.634;11.182;2022-09-01T11:40:40;5.72;;;0.20;;
55254;SDS011;41118;44.634;11.182;2022-09-01T11:43:08;2.65;;;0.20;;
55254;SDS011;41118;44.634;11.182;2022-09-01T11:45:37;4.68;;;0.20;;
55254;SDS011;41118;44.634;11.182;2022-09-01T11:48:08;1.10;;;0.10;;
55254;SDS011;41118;44.634;11.182;2022-09-01T11:50:36;9.30;;;1.00;;
55254;SDS011;41118;44.634;11.182;2022-09-01T11:53:13;0.73;;;0.10;;
55254;SDS011;41118;44.634;11.182;2022-09-01T11:55:41;3.65;;;0.22;;
55254;SDS011;41118;44.634;11.182;2022-09-01T11:58:12;1.23;;;0.10;;
55254;SDS011;41118;44.634;11.182;2022-09-01T12:00:39;3.67;;;0.10;;
55254;SDS011;41118;44.634;11.182;2022-09-01T12:03:22;0.88;;;0.10;;
55254;SDS011;41118;44.634;11.182;2022-09-01T12:05:53;1.40;;;0.10;;
55254;SDS011;41118;44.634;11.182;2022-09-01T12:08:23;0.50;;;0.10;;
55254;SDS011;41118;44.634;11.182;2022-09-01T12:10:59;3.00;;;0.00;;
55254;SDS011;41118;44.634;11.182;2022-09-01T12:13:27;0.50;;;0.10;;
55254;SDS011;41118;44.634;11.182;2022-09-01T12:15:58;0.88;;;0.15;;
55254;SDS011;41118;44.634;11.182;2022-09-01T12:18:28;0.82;;;0.10;;
55254;SDS011;41118;44.634;11.182;2022-09-01T12:20:56;2.05;;;0.20;;
55254;SDS011;41118;44.634;11.182;2022-09-01T12:23:24;0.85;;;0.10;;
55254;SDS011;41118;44.634;11.182;2022-09-01T12:25:51;0.55;;;0.10;;
55254;SDS011;41118;44.634;11.182;2022-09-01T12:28:19;1.58;;;0.10;;
55254;SDS011;41118;44.634;11.182;2022-09-01T12:30:47;0.95;;;0.10;;
55254;SDS011;41118;44.634;11.182;2022-09-01T12:33:14;0.70;;;0.20;;
55254;SDS011;41118;44.634;11.182;2022-09-01T12:35:42;1.80;;;0.10;;
55254;SDS011;41118;44.634;11.182;2022-09-01T12:38:42;0.40;;;0.10;;
55254;SDS011;41118;44.634;11.182;2022-09-01T12:41:01;0.50;;;0.10;;
55254;SDS011;41118;44.634;11.182;2022-09-01T12:43:47;2.05;;;0.10;;
55254;SDS011;41118;44.634;11.182;2022-09-01T12:46:34;1.25;;;0.10;;
55254;SDS011;41118;44.634;11.182;2022-09-01T12:49:19;1.17;;;0.10;;
55254;SDS011;41118;44.634;11.182;2022-09-01T12:51:47;4.40;;;0.73;;
55254;SDS011;41118;44.634;11.182;2022-09-01T12:54:13;0.38;;;0.10;;
55254;SDS011;41118;44.634;11.182;2022-09-01T12:56:43;1.02;;;0.10;;
55254;SDS011;41118;44.634;11.182;2022-09-01T12:59:20;0.93;;;0.10;;
55254;SDS011;41118;44.634;11.182;2022-09-01T13:01:48;0.90;;;0.10;;
55254;SDS011;41118;44.634;11.182;2022-09-01T13:06:46;0.22;;;0.10;;
55254;SDS011;41118;44.634;11.182;2022-09-01T13:09:13;0.80;;;0.10;;
55254;SDS011;41118;44.634;11.182;2022-09-01T13:11:39;0.20;;;0.00;;
55254;SDS011;41118;44.634;11.182;2022-09-01T13:14:11;0.50;;;0.10;;
55254;SDS011;41118;44.634;11.182;2022-09-01T13:16:38;0.60;;;0.10;;
55254;SDS011;41118;44.634;11.182;2022-09-01T13:19:05;0.47;;;0.10;;
55254;SDS011;41118;44.634;11.182;2022-09-01T13:21:31;1.75;;;0.08;;
55254;SDS011;41118;44.634;11.182;2022-09-01T13:23:59;0.40;;;0.10;;
55254;SDS011;41118;44.634;11.182;2022-09-01T13:26:26;0.25;;;0.00;;
55254;SDS011;41118;44.634;11.182;2022-09-01T13:28:55;1.30;;;0.00;;
55254;SDS011;41118;44.634;11.182;2022-09-01T13:31:22;0.13;;;0.00;;
55254;SDS011;41118;44.634;11.182;2022-09-01T13:33:48;0.50;;;0.10;;
55254;SDS011;41118;44.634;11.182;2022-09-01T13:36:14;0.70;;;0.10;;
55254;SDS011;41118;44.634;11.182;2022-09-01T13:38:40;0.20;;;0.00;;
55254;SDS011;41118;44.634;11.182;2022-09-01T13:41:07;0.40;;;0.10;;
55254;SDS011;41118;44.634;11.182;2022-09-01T13:43:35;0.50;;;0.10;;
55254;SDS011;41118;44.634;11.182;2022-09-01T13:46:01;1.48;;;0.10;;
55254;SDS011;41118;44.634;11.182;2022-09-01T13:48:27;0.50;;;0.00;;
55254;SDS011;41118;44.634;11.182;2022-09-01T13:50:54;0.47;;;0.10;;
55254;SDS011;41118;44.634;11.182;2022-09-01T13:53:20;1.55;;;0.00;;
55254;SDS011;41118;44.634;11.182;2022-09-01T13:55:47;0.20;;;0.00;;
55254;SDS011;41118;44.634;11.182;2022-09-01T13:58:13;0.22;;;0.00;;
55254;SDS011;41118;44.634;11.182;2022-09-01T14:00:41;0.35;;;0.00;;
55254;SDS011;41118;44.634;11.182;2022-09-01T14:03:09;0.20;;;0.00;;
55254;SDS011;41118;44.634;11.182;2022-09-01T14:05:38;0.75;;;0.00;;
55254;SDS011;41118;44.634;11.182;2022-09-01T14:08:05;0.43;;;0.00;;
55254;SDS011;41118;44.634;11.182;2022-09-01T14:10:31;0.25;;;0.00;;
55254;SDS011;41118;44.634;11.182;2022-09-01T14:12:58;0.82;;;0.00;;
55254;SDS011;41118;44.634;11.182;2022-09-01T14:15:25;0.10;;;0.00;;
55254;SDS011;41118;44.634;11.182;2022-09-01T14:17:52;0.50;;;0.10;;
55254;SDS011;41118;44.634;11.182;2022-09-01T14:20:21;0.40;;;0.05;;
55254;SDS011;41118;44.634;11.182;2022-09-01T14:22:48;0.50;;;0.10;;
55254;SDS011;41118;44.634;11.182;2022-09-01T14:25:15;0.38;;;0.00;;
55254;SDS011;41118;44.634;11.182;2022-09-01T14:27:42;0.20;;;0.00;;
55254;SDS011;41118;44.634;11.182;2022-09-01T14:30:10;0.40;;;0.00;;
55254;SDS011;41118;44.634;11.182;2022-09-01T14:32:37;0.13;;;0.00;;
55254;SDS011;41118;44.634;11.182;2022-09-01T14:35:03;0.65;;;0.00;;
55254;SDS011;41118;44.634;11.182;2022-09-01T14:37:32;0.32;;;0.00;;
55254;SDS011;41118;44.634;11.182;2022-09-01T14:39:58;0.13;;;0.00;;
55254;SDS011;41118;44.634;11.182;2022-09-01T14:42:25;0.10;;;0.00;;
55254;SDS011;41118;44.634;11.182;2022-09-01T14:44:52;1.45;;;0.00;;
55254;SDS011;41118;44.634;11.182;2022-09-01T14:47:19;1.58;;;0.00;;
55254;SDS011;41118;44.634;11.182;2022-09-01T14:49:45;0.17;;;0.00;;
55254;SDS011;41118;44.634;11.182;2022-09-01T14:52:11;0.10;;;0.00;;
55254;SDS011;41118;44.634;11.182;2022-09-01T14:54:39;0.20;;;0.00;;
55254;SDS011;41118;44.634;11.182;2022-09-01T14:57:06;1.73;;;0.03;;
55254;SDS011;41118;44.634;11.182;2022-09-01T14:59:33;0.10;;;0.00;;
55254;SDS011;41118;44.634;11.182;2022-09-01T15:02:00;0.40;;;0.00;;
55254;SDS011;41118;44.634;11.182;2022-09-01T15:04:26;0.17;;;0.00;;
55254;SDS011;41118;44.634;11.182;2022-09-01T15:06:53;1.00;;;0.00;;
55254;SDS011;41118;44.634;11.182;2022-09-01T15:09:19;0.28;;;0.00;;
55254;SDS011;41118;44.634;11.182;2022-09-01T15:11:45;0.65;;;0.00;;
55254;SDS011;41118;44.634;11.182;2022-09-01T15:14:12;0.32;;;0.00;;
55254;SDS011;41118;44.634;11.182;2022-09-01T15:16:38;0.35;;;0.00;;
55254;SDS011;41118;44.634;11.182;2022-09-01T15:19:08;0.10;;;0.00;;
55254;SDS011;41118;44.634;11.182;2022-09-01T15:21:35;0.10;;;0.00;;
55254;SDS011;41118;44.634;11.182;2022-09-01T15:24:02;0.10;;;0.00;;
55254;SDS011;41118;44.634;11.182;2022-09-01T15:26:28;0.40;;;0.00;;
55254;SDS011;41118;44.634;11.182;2022-09-01T15:28:55;0.10;;;0.00;;
55254;SDS011;41118;44.634;11.182;2022-09-01T15:31:21;0.30;;;0.00;;
55254;SDS011;41118;44.634;11.182;2022-09-01T15:33:48;1.70;;;0.00;;
55254;SDS011;41118;44.634;11.182;2022-09-01T15:36:18;0.20;;;0.00;;
55254;SDS011;41118;44.634;11.182;2022-09-01T15:38:45;0.10;;;0.00;;
55254;SDS011;41118;44.634;11.182;2022-09-01T15:41:22;0.13;;;0.00;;
55254;SDS011;41118;44.634;11.182;2022-09-01T15:43:49;0.25;;;0.00;;
55254;SDS011;41118;44.634;11.182;2022-09-01T15:46:15;0.38;;;0.00;;